createdAt,value
2023-12-14T00:01:11.887Z,75.30
2023-12-14T00:03:38.716Z,75.30
2023-12-14T00:06:07.277Z,75.30
2023-12-14T00:08:34.017Z,75.40
2023-12-14T00:11:03.935Z,75.40
2023-12-14T00:13:30.697Z,75.40
2023-12-14T00:15:57.467Z,75.50
2023-12-14T00:18:24.274Z,75.50
2023-12-14T00:20:51.051Z,75.60
2023-12-14T00:23:19.200Z,75.60
2023-12-14T00:25:45.988Z,75.70
2023-12-14T00:28:12.795Z,75.60
2023-12-14T00:30:39.541Z,75.70
2023-12-14T00:33:06.476Z,75.80
2023-12-14T00:35:33.237Z,75.80
2023-12-14T00:38:00.022Z,75.80
2023-12-14T00:40:28.181Z,75.90
2023-12-14T00:42:54.941Z,76.80
2023-12-14T00:45:21.676Z,76.00
2023-12-14T00:47:48.527Z,76.00
2023-12-14T00:50:15.548Z,76.00
2023-12-14T00:52:42.320Z,76.10
2023-12-14T00:55:09.051Z,76.20
2023-12-14T00:57:37.171Z,76.30
2023-12-14T01:00:04.185Z,77.20
2023-12-14T01:02:31.008Z,76.30
2023-12-14T01:04:58.406Z,76.30
2023-12-14T01:07:25.970Z,76.30
2023-12-14T01:09:52.706Z,76.30
2023-12-14T01:12:19.430Z,76.40
2023-12-14T01:14:47.534Z,76.50
2023-12-14T01:17:14.328Z,76.60
2023-12-14T01:19:41.114Z,76.70
2023-12-14T01:22:07.852Z,76.80
2023-12-14T01:24:34.583Z,76.80
2023-12-14T01:27:01.330Z,76.90
2023-12-14T01:29:28.090Z,76.90
2023-12-14T01:31:56.335Z,77.00
2023-12-14T01:34:23.071Z,77.10
2023-12-14T01:36:49.811Z,77.20
2023-12-14T01:39:16.580Z,77.30
2023-12-14T01:41:43.308Z,77.60
2023-12-14T01:44:10.157Z,77.70
2023-12-14T01:46:36.973Z,77.90
2023-12-14T01:49:05.326Z,78.10
2023-12-14T01:51:32.095Z,78.20
2023-12-14T01:53:58.825Z,78.20
2023-12-14T01:56:25.562Z,78.30
2023-12-14T01:58:52.311Z,78.40
2023-12-14T02:01:19.702Z,78.60
2023-12-14T02:03:46.628Z,78.60
2023-12-14T02:06:14.819Z,78.70
2023-12-14T02:08:41.607Z,78.70
2023-12-14T02:11:08.466Z,78.70
2023-12-14T02:13:35.262Z,78.90
2023-12-14T02:16:02.047Z,78.90
2023-12-14T02:18:28.922Z,79.10
2023-12-14T02:20:55.703Z,79.20
2023-12-14T02:23:23.803Z,79.30
2023-12-14T02:25:50.557Z,79.40
2023-12-14T02:28:17.297Z,79.50
2023-12-14T02:30:44.079Z,79.70
2023-12-14T02:33:10.833Z,79.70
2023-12-14T02:35:37.587Z,80.60
2023-12-14T02:38:04.395Z,79.90
2023-12-14T02:40:32.569Z,79.90
2023-12-14T02:42:59.337Z,80.00
2023-12-14T02:45:26.107Z,80.50
2023-12-14T02:47:52.880Z,80.20
2023-12-14T02:50:19.648Z,80.40
2023-12-14T02:52:46.452Z,80.40
2023-12-14T02:55:13.184Z,80.50
2023-12-14T02:57:41.283Z,80.60
2023-12-14T03:00:08.768Z,80.50
2023-12-14T03:02:35.963Z,80.60
2023-12-14T03:05:02.973Z,80.60
2023-12-14T03:07:29.796Z,80.70
2023-12-14T03:09:56.555Z,80.60
2023-12-14T03:12:23.282Z,80.70
2023-12-14T03:14:51.420Z,80.70
2023-12-14T03:17:18.152Z,80.80
2023-12-14T03:19:44.916Z,80.80
2023-12-14T03:22:11.683Z,80.80
2023-12-14T03:24:38.419Z,80.80
2023-12-14T03:27:05.443Z,80.90
2023-12-14T03:29:32.171Z,80.90
2023-12-14T03:32:00.383Z,81.00
2023-12-14T03:34:27.146Z,81.20
2023-12-14T03:36:59.857Z,81.30
2023-12-14T03:39:26.704Z,81.40
2023-12-14T03:41:53.450Z,81.60
2023-12-14T03:44:20.184Z,81.70
2023-12-14T03:46:46.995Z,81.80
2023-12-14T03:49:15.201Z,81.90
2023-12-14T03:51:42.022Z,81.90
2023-12-14T03:54:08.760Z,81.90
2023-12-14T03:56:35.481Z,82.70
2023-12-14T03:59:02.283Z,82.00
2023-12-14T04:01:29.072Z,82.10
2023-12-14T04:03:55.808Z,82.20
2023-12-14T04:06:23.917Z,82.10
2023-12-14T04:08:50.636Z,82.10
2023-12-14T04:11:17.464Z,82.30
2023-12-14T04:13:44.386Z,82.30
2023-12-14T04:16:11.158Z,82.40
2023-12-14T04:18:37.941Z,82.40
2023-12-14T04:21:05.212Z,82.40
2023-12-14T04:23:33.320Z,82.50
2023-12-14T04:26:00.072Z,82.60
2023-12-14T04:28:26.832Z,82.70
2023-12-14T04:30:53.761Z,82.80
2023-12-14T04:33:20.562Z,83.00
2023-12-14T04:35:47.318Z,83.00
2023-12-14T04:38:14.191Z,83.00
2023-12-14T04:40:43.601Z,83.10
2023-12-14T04:43:10.527Z,83.20
2023-12-14T04:45:37.265Z,83.20
2023-12-14T04:48:04.215Z,83.30
2023-12-14T04:50:30.974Z,83.30
2023-12-14T04:52:57.788Z,83.40
2023-12-14T04:55:24.546Z,83.40
2023-12-14T04:57:52.673Z,83.50
2023-12-14T05:00:19.479Z,84.40
2023-12-14T05:02:49.338Z,83.60
2023-12-14T05:05:16.205Z,83.60
2023-12-14T05:07:43.005Z,84.50
2023-12-14T05:10:09.909Z,83.70
2023-12-14T05:12:36.842Z,83.80
2023-12-14T05:15:05.760Z,83.80
2023-12-14T05:17:32.550Z,83.80
2023-12-14T05:19:59.382Z,83.80
2023-12-14T05:22:26.145Z,83.80
2023-12-14T05:24:52.889Z,83.80
2023-12-14T05:27:19.627Z,83.90
2023-12-14T05:29:46.360Z,83.80
2023-12-14T05:32:14.564Z,83.80
2023-12-14T05:34:41.358Z,83.80
2023-12-14T05:37:08.113Z,83.80
2023-12-14T05:39:34.839Z,83.90
2023-12-14T05:42:01.565Z,84.00
2023-12-14T05:44:28.285Z,84.00
2023-12-14T05:46:55.110Z,84.00
2023-12-14T05:49:23.250Z,83.90
2023-12-14T05:51:49.988Z,83.90
2023-12-14T05:54:16.754Z,84.00
2023-12-14T05:56:43.487Z,84.10
2023-12-14T05:59:10.248Z,84.00
2023-12-14T06:01:37.109Z,84.10
2023-12-14T06:04:04.143Z,84.20
2023-12-14T06:06:32.285Z,84.10
2023-12-14T06:08:59.009Z,84.40
2023-12-14T06:11:25.769Z,84.20
2023-12-14T06:13:52.588Z,84.20
2023-12-14T06:16:19.340Z,84.30
2023-12-14T06:18:46.171Z,84.20
2023-12-14T06:21:13.024Z,84.20
2023-12-14T06:23:41.129Z,84.30
2023-12-14T06:26:07.958Z,84.30
2023-12-14T06:28:34.789Z,84.40
2023-12-14T06:31:01.604Z,84.30
2023-12-14T06:33:28.498Z,84.30
2023-12-14T06:35:55.337Z,84.30
2023-12-14T06:38:22.135Z,84.20
2023-12-14T06:40:52.829Z,84.20
2023-12-14T06:43:19.602Z,84.10
2023-12-14T06:45:46.349Z,84.10
2023-12-14T06:48:13.174Z,84.10
2023-12-14T06:50:39.957Z,84.00
2023-12-14T06:53:06.721Z,83.90
2023-12-14T06:55:33.583Z,83.80
2023-12-14T06:58:01.719Z,83.80
2023-12-14T07:00:28.672Z,83.80
2023-12-14T07:02:55.483Z,83.70
2023-12-14T07:05:22.628Z,83.70
2023-12-14T07:07:49.493Z,83.60
2023-12-14T07:10:16.256Z,83.60
2023-12-14T07:12:43.046Z,83.50
2023-12-14T07:15:11.363Z,83.40
2023-12-14T07:17:38.145Z,83.40
2023-12-14T07:20:05.706Z,83.40
2023-12-14T07:22:32.846Z,83.40
2023-12-14T07:25:00.369Z,83.40
2023-12-14T07:27:27.457Z,83.30
2023-12-14T07:29:54.203Z,83.20
2023-12-14T07:32:22.473Z,83.20
2023-12-14T07:34:49.295Z,83.10
2023-12-14T07:37:16.073Z,83.10
2023-12-14T07:39:42.813Z,83.10
2023-12-14T07:42:09.553Z,83.00
2023-12-14T07:44:36.302Z,82.90
2023-12-14T07:47:03.109Z,82.90
2023-12-14T07:49:31.211Z,82.90
2023-12-14T07:51:57.948Z,82.70
2023-12-14T07:54:24.687Z,82.80
2023-12-14T07:56:51.480Z,82.70
2023-12-14T07:59:18.462Z,82.60
2023-12-14T08:01:45.362Z,82.50
2023-12-14T08:04:12.155Z,82.60
2023-12-14T08:06:40.471Z,82.40
2023-12-14T08:09:07.221Z,82.30
2023-12-14T08:11:33.979Z,82.20
2023-12-14T08:14:00.774Z,82.20
2023-12-14T08:16:27.513Z,82.10
2023-12-14T08:18:54.336Z,82.00
2023-12-14T08:21:21.082Z,81.90
2023-12-14T08:23:49.210Z,81.80
2023-12-14T08:26:16.039Z,81.80
2023-12-14T08:28:42.874Z,81.70
2023-12-14T08:31:09.694Z,81.60
2023-12-14T08:33:36.566Z,81.50
2023-12-14T08:36:03.578Z,81.50
2023-12-14T08:38:30.298Z,81.50
2023-12-14T08:40:58.622Z,81.40
2023-12-14T08:43:25.379Z,81.40
2023-12-14T08:45:52.126Z,81.20
2023-12-14T08:48:19.445Z,81.10
2023-12-14T08:50:46.362Z,81.10
2023-12-14T08:53:13.133Z,81.00
2023-12-14T08:55:39.934Z,80.90
2023-12-14T08:58:08.113Z,80.90
2023-12-14T09:00:34.865Z,80.80
2023-12-14T09:03:01.936Z,80.80
2023-12-14T09:05:28.913Z,80.70
2023-12-14T09:07:55.768Z,80.70
2023-12-14T09:10:22.624Z,80.60
2023-12-14T09:12:49.377Z,80.50
2023-12-14T09:15:17.561Z,80.50
2023-12-14T09:17:44.513Z,80.40
2023-12-14T09:20:11.998Z,80.30
2023-12-14T09:22:38.792Z,80.20
2023-12-14T09:25:06.221Z,80.10
2023-12-14T09:27:33.054Z,80.10
2023-12-14T09:29:59.843Z,80.00
2023-12-14T09:32:28.080Z,80.00
2023-12-14T09:34:54.913Z,80.00
2023-12-14T09:37:21.663Z,79.90
2023-12-14T09:39:48.388Z,79.80
2023-12-14T09:42:15.815Z,79.80
2023-12-14T09:44:42.578Z,79.70
2023-12-14T09:47:09.390Z,79.60
2023-12-14T09:49:37.836Z,79.60
2023-12-14T09:52:04.592Z,79.50
2023-12-14T09:54:31.329Z,79.50
2023-12-14T09:56:58.075Z,79.50
2023-12-14T09:59:24.873Z,79.40
2023-12-14T10:01:51.666Z,79.20
2023-12-14T10:04:18.722Z,79.20
2023-12-14T10:06:47.169Z,79.00
2023-12-14T10:09:13.948Z,79.00
2023-12-14T10:11:40.671Z,79.00
2023-12-14T10:14:18.540Z,78.90
2023-12-14T10:16:45.318Z,78.90
2023-12-14T10:19:12.144Z,78.90
2023-12-14T10:21:38.927Z,78.90
2023-12-14T10:24:07.405Z,78.90
2023-12-14T10:26:34.145Z,78.80
2023-12-14T10:29:00.891Z,78.80
2023-12-14T10:31:27.616Z,78.80
2023-12-14T10:33:54.382Z,78.70
2023-12-14T10:36:22.626Z,78.70
2023-12-14T10:38:49.432Z,78.70
2023-12-14T10:41:17.588Z,78.60
2023-12-14T10:43:49.309Z,78.60
2023-12-14T10:46:17.247Z,78.50
2023-12-14T10:48:44.195Z,78.50
2023-12-14T10:51:11.021Z,78.50
2023-12-14T10:53:37.768Z,78.50
2023-12-14T10:56:05.152Z,78.40
2023-12-14T10:58:39.776Z,78.30
2023-12-14T11:01:06.673Z,78.10
2023-12-14T11:03:34.090Z,78.10
2023-12-14T11:06:06.980Z,78.10
2023-12-14T11:08:41.582Z,78.00
2023-12-14T11:11:09.580Z,78.00
2023-12-14T11:13:36.343Z,77.80
2023-12-14T11:16:04.785Z,77.90
2023-12-14T11:18:31.645Z,77.90
2023-12-14T11:20:59.057Z,77.90
2023-12-14T11:23:43.505Z,77.90
2023-12-14T11:26:10.574Z,77.80
2023-12-14T11:28:38.126Z,77.70
2023-12-14T11:31:06.649Z,77.60
2023-12-14T11:33:33.780Z,77.50
2023-12-14T11:36:06.957Z,77.40
2023-12-14T11:38:33.719Z,77.40
2023-12-14T11:41:00.503Z,77.40
2023-12-14T11:43:27.278Z,77.30
2023-12-14T11:45:54.040Z,77.10
2023-12-14T11:48:22.391Z,76.90
2023-12-14T11:50:49.297Z,76.70
2023-12-14T11:53:16.204Z,76.80
2023-12-14T11:55:43.288Z,76.60
2023-12-14T11:58:10.729Z,76.70
2023-12-14T12:00:37.504Z,76.60
2023-12-14T12:03:11.005Z,76.50
2023-12-14T12:05:39.484Z,76.40
2023-12-14T12:08:08.806Z,76.40
2023-12-14T12:10:35.585Z,76.40
2023-12-14T12:13:03.013Z,76.30
2023-12-14T12:15:29.736Z,76.40
2023-12-14T12:17:56.579Z,76.50
2023-12-14T12:20:23.433Z,76.60
2023-12-14T12:22:51.637Z,76.60
2023-12-14T12:25:18.491Z,76.70
2023-12-14T12:27:45.258Z,76.80
2023-12-14T12:30:12.228Z,76.70
2023-12-14T12:32:39.040Z,76.70
2023-12-14T12:35:06.385Z,76.60
2023-12-14T12:37:33.420Z,76.50
2023-12-14T12:40:01.766Z,76.50
2023-12-14T12:42:28.526Z,76.50
2023-12-14T12:44:55.294Z,76.40
2023-12-14T12:47:22.040Z,76.40
2023-12-14T12:49:48.856Z,76.30
2023-12-14T12:52:15.660Z,76.30
2023-12-14T12:54:42.447Z,76.20
2023-12-14T12:57:10.549Z,76.20
2023-12-14T12:59:37.296Z,76.20
2023-12-14T13:02:04.286Z,76.00
2023-12-14T13:04:31.146Z,76.00
2023-12-14T13:06:57.890Z,76.00
2023-12-14T13:09:24.639Z,75.90
2023-12-14T13:11:51.531Z,75.90
2023-12-14T13:14:19.728Z,75.80
2023-12-14T13:16:46.480Z,75.60
2023-12-14T13:19:13.294Z,75.60
2023-12-14T13:21:40.054Z,75.60
2023-12-14T13:24:06.903Z,75.50
2023-12-14T13:26:33.662Z,75.40
2023-12-14T13:29:00.488Z,75.40
2023-12-14T13:31:28.611Z,75.30
2023-12-14T13:33:55.375Z,75.30
2023-12-14T13:36:22.138Z,75.30
2023-12-14T13:38:48.902Z,75.30
2023-12-14T13:41:15.693Z,75.30
2023-12-14T13:43:42.467Z,75.30
2023-12-14T13:46:18.234Z,75.30
2023-12-14T13:48:49.433Z,75.20
2023-12-14T13:51:16.245Z,75.20
2023-12-14T13:53:42.977Z,75.20
2023-12-14T13:56:10.134Z,75.10
2023-12-14T13:58:37.342Z,75.20
2023-12-14T14:01:04.343Z,75.10
2023-12-14T14:03:31.184Z,75.10
2023-12-14T14:05:59.376Z,75.10
2023-12-14T14:08:26.162Z,75.10
2023-12-14T14:10:52.957Z,75.20
2023-12-14T14:13:19.704Z,75.20
2023-12-14T14:15:46.441Z,75.20
2023-12-14T14:18:13.248Z,75.30
2023-12-14T14:20:39.999Z,75.30
2023-12-14T14:23:08.141Z,75.30
2023-12-14T14:25:34.896Z,75.30
2023-12-14T14:28:01.859Z,75.40
2023-12-14T14:30:28.768Z,75.40
2023-12-14T14:32:55.686Z,75.40
2023-12-14T14:35:22.607Z,75.50
2023-12-14T14:37:49.455Z,75.40
2023-12-14T14:40:17.602Z,75.40
2023-12-14T14:42:44.590Z,75.40
2023-12-14T14:45:11.657Z,75.50
2023-12-14T14:47:38.496Z,75.60
2023-12-14T14:50:05.804Z,75.60
2023-12-14T14:52:32.730Z,75.50
2023-12-14T14:54:59.557Z,75.60
2023-12-14T14:57:27.739Z,75.50
2023-12-14T14:59:54.519Z,76.40
2023-12-14T15:02:21.323Z,75.70
2023-12-14T15:04:48.165Z,75.70
2023-12-14T15:07:14.951Z,75.70
2023-12-14T15:09:41.694Z,75.80
2023-12-14T15:12:08.519Z,75.80
2023-12-14T15:14:36.815Z,75.80
2023-12-14T15:17:03.615Z,75.80
2023-12-14T15:19:30.410Z,75.90
2023-12-14T15:21:57.200Z,75.90
2023-12-14T15:24:23.946Z,75.80
2023-12-14T15:26:50.718Z,75.80
2023-12-14T15:29:17.529Z,75.60
2023-12-14T15:31:45.739Z,75.60
2023-12-14T15:34:12.756Z,75.60
2023-12-14T15:36:39.661Z,75.50
2023-12-14T15:39:06.407Z,75.50
2023-12-14T15:41:33.151Z,75.40
2023-12-14T15:43:59.927Z,75.50
2023-12-14T15:46:26.745Z,75.50
2023-12-14T15:48:54.916Z,76.20
2023-12-14T15:51:21.661Z,75.40
2023-12-14T15:53:48.410Z,75.20
2023-12-14T15:56:15.157Z,75.20
2023-12-14T15:58:41.913Z,75.10
2023-12-14T16:01:08.679Z,75.10
2023-12-14T16:03:35.610Z,75.10
2023-12-14T16:06:04.173Z,74.90
2023-12-14T16:08:31.195Z,74.90
2023-12-14T16:10:57.994Z,75.00
2023-12-14T16:13:24.775Z,75.00
2023-12-14T16:15:51.516Z,75.00
2023-12-14T16:18:18.338Z,75.00
2023-12-14T16:20:45.188Z,74.90
2023-12-14T16:23:13.399Z,74.80
2023-12-14T16:25:40.178Z,74.90
2023-12-14T16:28:06.914Z,74.90
2023-12-14T16:30:33.699Z,74.70
2023-12-14T16:33:00.572Z,74.80
2023-12-14T16:35:27.528Z,74.80
2023-12-14T16:37:54.350Z,74.90
2023-12-14T16:40:22.490Z,74.80
2023-12-14T16:42:49.236Z,74.90
2023-12-14T16:45:15.978Z,74.90
2023-12-14T16:47:42.771Z,74.80
2023-12-14T16:50:09.663Z,74.80
2023-12-14T16:52:36.652Z,74.80
2023-12-14T16:55:03.818Z,74.90
2023-12-14T16:57:31.951Z,74.90
2023-12-14T16:59:58.712Z,75.00
2023-12-14T17:02:25.574Z,75.00
2023-12-14T17:04:52.393Z,74.90
2023-12-14T17:07:19.137Z,74.80
2023-12-14T17:09:45.892Z,74.80
2023-12-14T17:12:12.633Z,74.80
2023-12-14T17:14:42.287Z,74.80
2023-12-14T17:17:09.052Z,74.80
2023-12-14T17:19:35.826Z,74.90
2023-12-14T17:22:02.982Z,74.90
2023-12-14T17:24:29.724Z,75.00
2023-12-14T17:26:56.513Z,75.00
2023-12-14T17:29:23.289Z,75.00
2023-12-14T17:31:51.588Z,75.00
2023-12-14T17:34:18.495Z,75.00
2023-12-14T17:36:45.280Z,75.00
2023-12-14T17:39:12.017Z,75.00
2023-12-14T17:41:38.753Z,75.00
2023-12-14T17:44:05.507Z,75.00
2023-12-14T17:46:32.257Z,75.10
2023-12-14T17:49:02.875Z,75.00
2023-12-14T17:51:31.396Z,75.10
2023-12-14T17:53:58.140Z,75.10
2023-12-14T17:56:24.888Z,75.10
2023-12-14T17:58:51.696Z,75.10
2023-12-14T18:01:18.521Z,75.20
2023-12-14T18:03:45.284Z,75.20
2023-12-14T18:06:13.451Z,75.10
2023-12-14T18:08:40.220Z,75.20
2023-12-14T18:11:07.091Z,75.20
2023-12-14T18:13:33.856Z,75.20
2023-12-14T18:16:00.591Z,75.20
2023-12-14T18:18:27.549Z,75.30
2023-12-14T18:20:54.349Z,75.60
2023-12-14T18:23:22.498Z,75.20
2023-12-14T18:25:49.288Z,75.20
2023-12-14T18:28:16.038Z,75.20
2023-12-14T18:30:42.898Z,75.20
2023-12-14T18:33:09.802Z,75.10
2023-12-14T18:35:36.688Z,75.20
2023-12-14T18:38:03.496Z,75.90
2023-12-14T18:40:31.709Z,75.00
2023-12-14T18:42:58.433Z,75.00
2023-12-14T18:45:25.174Z,75.00
2023-12-14T18:47:52.013Z,75.10
2023-12-14T18:50:18.865Z,75.00
2023-12-14T18:52:45.705Z,75.00
2023-12-14T18:55:12.799Z,75.00
2023-12-14T18:57:40.969Z,75.00
2023-12-14T19:00:08.336Z,75.00
2023-12-14T19:02:35.078Z,75.00
2023-12-14T19:05:01.862Z,75.00
2023-12-14T19:07:28.645Z,74.90
2023-12-14T19:09:55.380Z,75.00
2023-12-14T19:12:22.155Z,74.80
2023-12-14T19:17:53.458Z,74.80
2023-12-14T19:20:20.323Z,74.90
2023-12-14T19:22:47.171Z,74.80
2023-12-14T19:25:14.002Z,74.90
2023-12-14T19:27:40.868Z,74.80
2023-12-14T19:30:08.903Z,74.80
2023-12-14T19:32:35.723Z,74.80
2023-12-14T19:35:04.155Z,74.80
2023-12-14T19:37:30.938Z,74.20
2023-12-14T19:39:57.671Z,74.80
2023-12-14T19:42:24.416Z,74.70
2023-12-14T19:44:51.154Z,74.60
2023-12-14T19:47:17.972Z,74.60
2023-12-14T19:49:44.796Z,74.60
2023-12-14T19:52:12.939Z,74.50
2023-12-14T19:54:41.111Z,74.60
2023-12-14T19:57:07.946Z,74.60
2023-12-14T19:59:34.723Z,74.50
2023-12-14T20:02:01.486Z,74.50
2023-12-14T20:04:28.239Z,74.50
2023-12-14T20:06:55.089Z,74.50
2023-12-14T20:09:23.238Z,74.40
2023-12-14T20:11:50.040Z,74.40
2023-12-14T20:14:16.906Z,74.30
2023-12-14T20:16:45.842Z,74.40
2023-12-14T20:19:12.665Z,74.30
2023-12-14T20:21:39.449Z,74.20
2023-12-14T20:24:06.491Z,74.20
2023-12-14T20:26:34.641Z,74.10
2023-12-14T20:29:01.429Z,74.00
2023-12-14T20:31:28.182Z,74.00
2023-12-14T20:33:54.972Z,73.90
2023-12-14T20:36:21.740Z,73.90
2023-12-14T20:38:48.536Z,73.70
2023-12-14T20:41:15.304Z,73.70
2023-12-14T20:43:43.444Z,73.70
2023-12-14T20:46:10.214Z,73.60
2023-12-14T20:48:36.990Z,73.60
2023-12-14T20:51:03.987Z,73.60
2023-12-14T20:53:30.799Z,74.40
2023-12-14T20:55:57.596Z,73.60
2023-12-14T20:58:24.338Z,73.50
2023-12-14T21:00:52.487Z,73.50
2023-12-14T21:03:19.306Z,73.40
2023-12-14T21:05:48.752Z,73.30
2023-12-14T21:08:16.358Z,73.40
2023-12-14T21:10:43.167Z,73.30
2023-12-14T21:13:09.910Z,73.30
2023-12-14T21:15:36.692Z,73.30
2023-12-14T21:18:05.088Z,73.30
2023-12-14T21:20:32.023Z,73.30
2023-12-14T21:22:58.886Z,73.40
2023-12-14T21:25:25.659Z,73.30
2023-12-14T21:27:52.398Z,73.30
2023-12-14T21:30:19.452Z,73.30
2023-12-14T21:32:46.412Z,73.20
2023-12-14T21:35:14.705Z,73.20
2023-12-14T21:37:41.466Z,73.10
2023-12-14T21:40:08.451Z,73.10
2023-12-14T21:42:35.435Z,73.00
2023-12-14T21:45:02.179Z,72.90
2023-12-14T21:47:29.000Z,73.00
2023-12-14T21:49:55.866Z,72.90
2023-12-14T21:52:24.020Z,72.90
2023-12-14T21:54:50.770Z,72.80
2023-12-14T21:57:17.496Z,72.70
2023-12-14T21:59:44.232Z,72.60
2023-12-14T22:02:10.972Z,72.60
2023-12-14T22:04:37.747Z,72.60
2023-12-14T22:07:04.708Z,72.60
2023-12-14T22:09:32.855Z,72.50
2023-12-14T22:11:59.589Z,72.50
2023-12-14T22:14:26.372Z,72.50
2023-12-14T22:16:53.970Z,72.50
2023-12-14T22:19:20.794Z,72.50
2023-12-14T22:21:47.567Z,72.50
2023-12-14T22:24:14.311Z,72.40
2023-12-14T22:26:42.419Z,72.40
2023-12-14T22:29:09.180Z,72.40
2023-12-14T22:31:35.957Z,72.50
2023-12-14T22:34:02.734Z,72.50
2023-12-14T22:36:29.508Z,72.50
2023-12-14T22:38:56.242Z,72.60
2023-12-14T22:41:22.996Z,72.50
2023-12-14T22:43:51.121Z,72.50
2023-12-14T22:46:17.873Z,72.40
2023-12-14T22:48:44.742Z,72.30
2023-12-14T22:51:17.531Z,72.30
2023-12-14T22:53:44.331Z,72.30
2023-12-14T22:56:11.098Z,72.20
2023-12-14T22:58:37.864Z,72.20
2023-12-14T23:01:06.268Z,72.20
2023-12-14T23:03:33.098Z,72.20
2023-12-14T23:05:59.941Z,72.20
2023-12-14T23:08:26.813Z,72.10
2023-12-14T23:10:53.656Z,72.20
2023-12-14T23:13:20.407Z,72.10
2023-12-14T23:15:47.145Z,72.00
2023-12-14T23:18:15.410Z,72.00
2023-12-14T23:20:42.267Z,72.00
2023-12-14T23:23:09.076Z,71.90
2023-12-14T23:25:35.830Z,71.90
2023-12-14T23:28:02.561Z,71.90
2023-12-14T23:30:29.371Z,71.80
2023-12-14T23:32:56.162Z,71.80
2023-12-14T23:35:24.306Z,71.80
2023-12-14T23:37:51.116Z,71.90
2023-12-14T23:40:17.860Z,71.90
2023-12-14T23:42:44.596Z,71.80
2023-12-14T23:45:11.328Z,71.90
2023-12-14T23:47:38.282Z,71.80
2023-12-14T23:50:05.914Z,71.80
2023-12-14T23:52:34.065Z,71.70
2023-12-14T23:55:00.795Z,71.80
2023-12-14T23:57:27.556Z,71.80
2023-12-14T23:59:54.288Z,71.80
